ΕΜΥ, Εθνική Μετεωρολογική Υπηρεσία - Δελτία Καιρού, Προγνώσεις

ΑΕΡΟΝΑΥΤΙΛΙΑ

GREEK AIRPORTS CODES

LGTL 030050Z AUTO 18007KT //// // ////// 14/12 Q1018 RE//=

EUROPEAN AIRPORTS CODES

LFPO 030100Z 23003KT CAVOK 01/00 Q1015 NOSIG=